Time;durP1;ratioP1;P1;durP2;ratioP2;P2;SDS_P1;SDS_P2;PMS_P1;PMS_P2;Temp;Humidity;BMP_temperature;BMP_pressure;BME280_temperature;BME280_humidity;BME280_pressure;Samples;Min_cycle;Max_cycle;Signal;HPM_P1;HPM_P2
2022/09/01 00:01:52;;;;;;;2.80;1.25;;;;;;;16.09;56.50;99412.47;5066065;28;20035;-79
2022/09/01 00:04:21;;;;;;;4.57;1.70;;;;;;;15.63;57.97;99424.28;5058266;28;20040;-79
2022/09/01 00:06:48;;;;;;;0.98;0.98;;;;;;;15.56;57.81;99416.44;5064069;28;20037;-79
2022/09/01 00:09:17;;;;;;;4.65;1.35;;;;;;;14.85;59.80;99431.50;5066158;28;20020;-79
2022/09/01 00:11:45;;;;;;;2.25;1.10;;;;;;;14.73;59.73;99413.97;5061368;28;20036;-79
2022/09/01 00:14:12;;;;;;;1.70;1.15;;;;;;;14.80;59.82;99401.94;5055616;28;20476;-79
2022/09/01 00:16:37;;;;;;;3.63;1.38;;;;;;;15.33;58.37;99416.88;5065418;28;20501;-79
2022/09/01 00:19:03;;;;;;;2.17;1.33;;;;;;;16.35;56.63;99424.00;5057470;28;20083;-79
2022/09/01 00:21:32;;;;;;;1.33;1.10;;;;;;;16.55;56.16;99428.59;5047222;28;21780;-79
2022/09/01 00:23:59;;;;;;;2.65;1.13;;;;;;;16.69;55.82;99440.41;5067776;28;20028;-79
2022/09/01 00:26:25;;;;;;;1.10;1.00;;;;;;;16.83;55.00;99433.34;5049319;28;20048;-79
2022/09/01 00:28:50;;;;;;;2.70;1.10;;;;;;;16.69;55.10;99408.84;5061553;28;20037;-79
2022/09/01 00:31:18;;;;;;;1.73;1.40;;;;;;;16.82;55.06;99435.25;5048097;28;20029;-79
2022/09/01 00:33:45;;;;;;;1.17;0.85;;;;;;;16.88;54.93;99423.38;5060961;28;20020;-79
2022/09/01 00:36:11;;;;;;;2.53;0.90;;;;;;;16.79;55.18;99425.03;5061990;28;20039;-79
2022/09/01 00:38:36;;;;;;;1.63;1.10;;;;;;;16.81;55.06;99433.63;5067489;28;20036;-79
2022/09/01 00:41:02;;;;;;;3.20;1.33;;;;;;;16.81;55.49;99439.03;5063301;28;20476;-79
2022/09/01 00:43:45;;;;;;;4.65;1.38;;;;;;;16.76;55.45;99430.13;5062525;28;20068;-79
2022/09/01 00:46:20;;;;;;;4.75;1.30;;;;;;;16.66;55.37;99416.69;5062378;28;20032;-79
2022/09/01 00:48:50;;;;;;;1.00;0.90;;;;;;;16.47;55.92;99417.25;5065179;28;20044;-79
2022/09/01 00:51:15;;;;;;;4.40;1.10;;;;;;;16.43;55.90;99405.41;5061376;28;20046;-79
2022/09/01 00:53:42;;;;;;;2.28;1.48;;;;;;;16.54;55.03;99408.91;5066085;28;20627;-79
2022/09/01 00:56:08;;;;;;;2.88;1.50;;;;;;;16.46;55.13;99414.81;5059266;28;20116;-79
2022/09/01 00:58:36;;;;;;;1.83;1.35;;;;;;;16.51;55.39;99422.94;5051238;28;20028;-79
2022/09/01 01:01:02;;;;;;;1.20;0.90;;;;;;;16.37;55.22;99414.56;5064915;28;20076;-79
2022/09/01 01:03:29;;;;;;;1.95;1.30;;;;;;;16.39;55.92;99423.19;5056509;28;20040;-79
2022/09/01 01:05:57;;;;;;;4.20;1.30;;;;;;;16.52;55.00;99421.03;5057895;28;20029;-79
2022/09/01 01:08:32;;;;;;;1.95;1.02;;;;;;;16.29;55.56;99403.53;5066530;28;20033;-79
2022/09/01 01:11:00;;;;;;;5.65;1.35;;;;;;;16.31;55.85;99423.75;5043490;28;20029;-80
2022/09/01 01:13:28;;;;;;;1.42;1.20;;;;;;;16.19;55.78;99404.34;5062192;28;20492;-79
2022/09/01 01:15:54;;;;;;;2.58;1.17;;;;;;;16.12;55.86;99403.03;5048937;28;20062;-79
2022/09/01 01:18:19;;;;;;;1.58;1.10;;;;;;;16.35;55.40;99424.81;5064285;28;20021;-79
2022/09/01 01:23:47;;;;;;;2.15;1.05;;;;;;;16.16;55.97;99391.41;5063995;28;20044;-79
2022/09/01 01:26:13;;;;;;;1.38;1.23;;;;;;;16.03;55.91;99399.25;5067316;28;20039;-79
2022/09/01 01:28:41;;;;;;;0.88;0.88;;;;;;;16.06;56.22;99417.56;5027111;28;20028;-79
2022/09/01 01:31:11;;;;;;;1.38;1.08;;;;;;;16.06;55.72;99394.13;5047490;28;20055;-79
2022/09/01 01:33:43;;;;;;;1.77;1.20;;;;;;;16.03;55.95;99405.44;5057375;28;20090;-79
2022/09/01 01:36:25;;;;;;;1.95;1.48;;;;;;;15.93;56.62;99404.63;5057570;28;20079;-79
2022/09/01 01:38:52;;;;;;;1.85;1.17;;;;;;;15.98;56.63;99410.03;5062965;28;20032;-79
2022/09/01 01:41:18;;;;;;;2.83;1.23;;;;;;;15.77;56.47;99377.72;5062858;28;20041;-79
2022/09/01 01:43:44;;;;;;;3.17;1.00;;;;;;;15.89;56.20;99400.88;5062626;28;20039;-79
2022/09/01 01:46:10;;;;;;;1.63;1.38;;;;;;;15.89;56.74;99415.13;5054673;28;20036;-79
2022/09/01 01:48:39;;;;;;;3.95;1.48;;;;;;;15.84;56.55;99395.47;5067995;28;20051;-79
2022/09/01 01:51:05;;;;;;;3.60;0.80;;;;;;;15.90;56.86;99416.75;5064749;28;20032;-79
2022/09/01 01:53:32;;;;;;;2.28;1.10;;;;;;;15.90;56.78;99415.97;5063416;28;20123;-79
2022/09/01 01:55:59;;;;;;;2.15;1.30;;;;;;;15.65;57.10;99392.50;5059887;28;20104;-79
2022/09/01 01:58:27;;;;;;;2.28;1.52;;;;;;;15.80;57.04;99397.09;5063426;28;20033;-79
2022/09/01 02:00:54;;;;;;;1.13;1.13;;;;;;;15.74;56.84;99413.25;5042827;28;20493;-79
2022/09/01 02:03:23;;;;;;;2.05;1.10;;;;;;;15.73;57.00;99414.31;5059185;28;20606;-79
2022/09/01 02:05:51;;;;;;;3.42;1.52;;;;;;;15.82;56.76;99411.91;5058059;28;20035;-79
2022/09/01 02:08:19;;;;;;;1.10;0.80;;;;;;;15.75;57.27;99404.09;5065643;28;20021;-79
2022/09/01 02:10:47;;;;;;;1.42;1.23;;;;;;;15.68;57.33;99411.63;5061812;28;20048;-79
2022/09/01 02:13:15;;;;;;;1.45;1.10;;;;;;;15.60;57.24;99382.56;5046597;28;20111;-79
2022/09/01 02:15:48;;;;;;;2.03;1.20;;;;;;;15.71;56.97;99407.59;5057485;28;20085;-79
2022/09/01 02:18:16;;;;;;;2.03;1.50;;;;;;;15.79;56.88;99403.56;5061191;28;20034;-80
2022/09/01 02:20:43;;;;;;;2.40;1.20;;;;;;;15.64;56.83;99397.09;5057738;28;20090;-79
2022/09/01 02:23:10;;;;;;;2.30;1.40;;;;;;;15.59;57.61;99404.34;5059813;28;20090;-79
2022/09/01 02:25:42;;;;;;;1.05;0.90;;;;;;;15.58;57.65;99394.66;5061242;28;20120;-79
2022/09/01 02:28:16;;;;;;;2.75;1.55;;;;;;;15.67;57.51;99406.50;5062715;28;20024;-79
2022/09/01 02:30:48;;;;;;;3.80;1.40;;;;;;;15.56;57.05;99388.72;5057247;28;20029;-79
2022/09/01 02:33:17;;;;;;;1.30;1.00;;;;;;;15.50;57.82;99403.25;5060943;28;21662;-79
2022/09/01 02:35:45;;;;;;;2.50;1.67;;;;;;;15.39;57.80;99404.28;5054770;28;20028;-79
2022/09/01 02:38:12;;;;;;;1.27;0.77;;;;;;;15.48;57.63;99406.22;5083195;28;20389;-79
2022/09/01 02:40:39;;;;;;;1.42;1.23;;;;;;;15.51;57.79;99402.97;5061115;28;20043;-79
2022/09/01 02:43:04;;;;;;;2.60;1.58;;;;;;;15.41;57.58;99386.81;5079691;28;20469;-79
2022/09/01 02:45:31;;;;;;;2.78;1.05;;;;;;;15.45;57.63;99389.78;5038975;28;20040;-79
2022/09/01 02:47:57;;;;;;;5.30;1.45;;;;;;;15.52;57.74;99401.09;5046697;28;20032;-79
2022/09/01 02:50:25;;;;;;;3.97;1.55;;;;;;;15.37;57.96;99401.06;5068532;28;20020;-79
2022/09/01 02:52:51;;;;;;;1.23;1.13;;;;;;;15.39;57.87;99401.59;5061879;28;20074;-79
2022/09/01 02:55:21;;;;;;;2.10;1.33;;;;;;;15.44;57.88;99388.97;5065722;28;20120;-79
2022/09/01 02:57:49;;;;;;;3.03;1.35;;;;;;;15.29;57.79;99380.06;5067595;28;20398;-79
2022/09/01 03:00:21;;;;;;;3.20;1.35;;;;;;;15.11;58.10;99385.91;5043724;28;20032;-81
2022/09/01 03:02:51;;;;;;;1.27;1.17;;;;;;;15.33;58.49;99397.28;5068556;28;20032;-79
2022/09/01 03:05:25;;;;;;;3.10;1.48;;;;;;;15.28;58.51;99392.69;5063173;28;20028;-79
2022/09/01 03:08:14;;;;;;;1.52;1.35;;;;;;;15.21;58.45;99392.13;5066778;28;20085;-81
2022/09/01 03:10:43;;;;;;;1.58;1.40;;;;;;;15.17;58.42;99377.59;5063076;28;20128;-79
2022/09/01 03:13:17;;;;;;;4.10;1.30;;;;;;;15.23;58.30;99389.16;5054446;28;20029;-79
2022/09/01 03:15:43;;;;;;;1.38;1.27;;;;;;;15.16;58.49;99369.81;5063932;28;20032;-79
2022/09/01 03:18:10;;;;;;;1.80;1.30;;;;;;;15.18;58.90;99405.31;5068197;28;20073;-79
2022/09/01 03:20:38;;;;;;;5.95;1.23;;;;;;;15.09;58.90;99393.44;5061658;28;20041;-81
2022/09/01 03:23:07;;;;;;;4.85;1.88;;;;;;;15.27;58.44;99387.56;5065213;28;20032;-80
2022/09/01 03:25:35;;;;;;;2.63;1.55;;;;;;;15.10;58.86;99397.72;5066806;28;20038;-79
2022/09/01 03:28:01;;;;;;;2.92;1.73;;;;;;;15.06;58.80;99393.97;5068865;28;20041;-79
2022/09/01 03:30:33;;;;;;;4.68;1.67;;;;;;;15.07;59.31;99392.91;5065875;28;20032;-79
2022/09/01 03:33:01;;;;;;;4.03;1.45;;;;;;;15.05;59.43;99400.44;5047284;28;20043;-80
2022/09/01 03:35:27;;;;;;;2.00;1.50;;;;;;;15.05;59.60;99397.75;5055695;28;20029;-79
2022/09/01 03:37:57;;;;;;;6.00;1.63;;;;;;;14.94;59.20;99381.56;5063728;28;20063;-80
2022/09/01 03:40:26;;;;;;;3.00;1.67;;;;;;;14.97;59.21;99385.59;5069079;28;20035;-80
2022/09/01 03:42:52;;;;;;;1.38;1.10;;;;;;;14.82;59.57;99370.22;5066605;28;20119;-79
2022/09/01 03:45:19;;;;;;;3.88;1.67;;;;;;;15.03;59.19;99390.72;5065533;28;20569;-79
2022/09/01 03:47:45;;;;;;;1.65;1.50;;;;;;;14.95;59.20;99401.19;5056682;28;20067;-79
2022/09/01 03:50:19;;;;;;;3.40;2.03;;;;;;;14.96;59.29;99400.13;5055402;28;20059;-79
2022/09/01 03:52:57;;;;;;;2.03;1.83;;;;;;;14.96;59.37;99398.22;5062473;28;20095;-79
2022/09/01 03:55:29;;;;;;;1.95;1.65;;;;;;;14.77;59.45;99394.38;5061684;28;20021;-80
2022/09/01 03:57:59;;;;;;;2.40;1.60;;;;;;;14.75;59.07;99385.78;5062143;28;20040;-79
2022/09/01 04:00:28;;;;;;;1.85;1.30;;;;;;;14.99;59.30;99404.97;5058887;28;20054;-79
2022/09/01 04:02:57;;;;;;;2.88;1.52;;;;;;;15.00;58.84;99396.63;5049291;28;20039;-79
2022/09/01 04:05:27;;;;;;;1.88;1.42;;;;;;;14.69;59.62;99389.53;5062993;28;20025;-79
2022/09/01 04:07:53;;;;;;;34.10;3.85;;;;;;;14.78;59.50;99381.75;5045543;28;20081;-79
2022/09/01 04:10:21;;;;;;;1.73;1.63;;;;;;;14.72;59.85;99383.59;5067233;28;20055;-79
2022/09/01 04:12:48;;;;;;;6.47;1.92;;;;;;;14.74;59.51;99388.75;5046745;28;20036;-79
2022/09/01 04:15:15;;;;;;;2.00;1.55;;;;;;;14.75;59.33;99382.28;5058345;28;20044;-79
2022/09/01 04:18:08;;;;;;;2.53;1.10;;;;;;;14.72;59.37;99397.03;5056639;28;20072;-79
2022/09/01 04:20:46;;;;;;;3.10;1.52;;;;;;;14.59;59.32;99364.50;5060936;28;20056;-79
2022/09/01 04:23:22;;;;;;;5.22;2.03;;;;;;;14.66;59.23;99387.34;5064990;28;20496;-78
2022/09/01 04:25:49;;;;;;;3.25;1.45;;;;;;;14.52;59.84;99380.84;5058816;28;20029;-78
2022/09/01 04:28:21;;;;;;;2.97;1.63;;;;;;;14.58;59.96;99408.53;5048099;28;20040;-77
2022/09/01 04:30:54;;;;;;;3.63;1.30;;;;;;;14.59;59.88;99410.16;5042713;28;20024;-77
2022/09/01 04:33:21;;;;;;;2.45;1.70;;;;;;;14.52;59.68;99388.91;5044770;28;20068;-77
2022/09/01 04:35:48;;;;;;;2.47;1.50;;;;;;;14.65;59.32;99403.75;5047047;28;20037;-78
2022/09/01 04:38:14;;;;;;;5.55;1.60;;;;;;;14.43;60.28;99395.03;5055315;28;20039;-78
2022/09/01 04:40:41;;;;;;;2.22;1.70;;;;;;;14.52;60.10;99401.53;5059461;28;20064;-78
2022/09/01 04:43:06;;;;;;;5.28;1.80;;;;;;;14.50;59.75;99395.59;5018471;28;1107976;-78
2022/09/01 04:45:35;;;;;;;3.83;2.20;;;;;;;14.49;59.89;99397.47;5065063;28;20067;-78
2022/09/01 04:48:04;;;;;;;3.15;1.98;;;;;;;14.53;59.96;99412.00;5045053;28;20603;-78
2022/09/01 04:50:29;;;;;;;2.95;1.67;;;;;;;14.51;59.65;99398.03;5047023;28;20071;-78
2022/09/01 04:53:01;;;;;;;4.03;1.73;;;;;;;14.53;59.88;99403.94;5081092;28;20036;-78
2022/09/01 04:55:28;;;;;;;6.00;1.65;;;;;;;14.58;59.72;99414.72;5059447;28;20223;-78
2022/09/01 04:57:56;;;;;;;2.60;1.63;;;;;;;14.56;59.85;99419.53;5057521;28;20036;-78
2022/09/01 05:00:24;;;;;;;4.38;1.60;;;;;;;14.50;59.66;99398.28;5059689;28;20075;-77
2022/09/01 05:03:02;;;;;;;4.47;1.63;;;;;;;14.51;59.93;99383.78;5060371;28;20572;-78
2022/09/01 05:05:28;;;;;;;1.70;1.60;;;;;;;14.52;59.91;99402.34;5061597;28;20096;-78
2022/09/01 05:07:56;;;;;;;3.25;1.60;;;;;;;14.55;60.36;99400.97;5059301;28;20044;-78
2022/09/01 05:10:27;;;;;;;5.13;1.83;;;;;;;14.44;60.37;99391.28;5065129;28;20028;-78
2022/09/01 05:12:53;;;;;;;5.28;1.73;;;;;;;14.41;60.90;99418.66;5061306;28;20020;-79
2022/09/01 05:15:19;;;;;;;3.72;1.80;;;;;;;14.36;60.87;99403.31;5067376;28;20043;-79
2022/09/01 05:17:46;;;;;;;3.35;1.75;;;;;;;14.56;60.83;99418.72;5066481;28;20444;-79
2022/09/01 05:20:12;;;;;;;2.85;1.50;;;;;;;14.70;60.71;99412.63;5054615;28;20025;-79
2022/09/01 05:22:39;;;;;;;3.03;1.58;;;;;;;14.57;60.71;99391.59;5063729;28;20031;-79
2022/09/01 05:25:12;;;;;;;1.27;1.17;;;;;;;14.64;60.38;99394.03;5030855;28;20119;-79
2022/09/01 05:27:40;;;;;;;4.70;1.60;;;;;;;14.32;62.98;99415.63;5068375;28;20452;-79
2022/09/01 05:30:07;;;;;;;3.25;1.80;;;;;;;13.51;65.45;99422.16;5063982;28;20031;-79
2022/09/01 05:32:36;;;;;;;5.20;1.73;;;;;;;13.35;65.77;99415.84;5062759;28;20041;-79
2022/09/01 05:35:07;;;;;;;3.28;1.85;;;;;;;13.47;66.18;99413.84;5064197;28;20536;-79
2022/09/01 05:37:36;;;;;;;5.07;1.90;;;;;;;13.54;66.40;99419.00;5060937;28;20032;-79
2022/09/01 05:40:05;;;;;;;16.05;2.97;;;;;;;12.68;68.70;99388.50;5058077;28;20031;-78
2022/09/01 05:42:31;;;;;;;10.65;2.72;;;;;;;12.52;69.83;99420.66;5069288;28;20021;-78
2022/09/01 05:44:56;;;;;;;11.00;2.10;;;;;;;12.86;68.35;99402.63;5057490;28;20082;-79
2022/09/01 05:47:22;;;;;;;8.38;2.65;;;;;;;12.46;70.20;99394.88;5070399;28;20028;-78
2022/09/01 05:49:49;;;;;;;12.63;2.28;;;;;;;12.77;69.63;99397.72;5075582;28;20418;-78
2022/09/01 05:52:14;;;;;;;10.82;2.15;;;;;;;12.88;69.67;99412.06;5070814;28;20110;-78
2022/09/01 05:54:40;;;;;;;9.45;3.25;;;;;;;12.75;70.42;99423.13;5034347;28;20120;-78
2022/09/01 05:57:06;;;;;;;4.80;2.22;;;;;;;13.45;67.78;99415.13;5080313;28;20488;-78
2022/09/01 05:59:32;;;;;;;5.30;1.88;;;;;;;13.94;65.54;99416.66;5069993;28;20056;-78
2022/09/01 06:01:57;;;;;;;5.93;1.98;;;;;;;13.31;67.61;99405.88;5064460;28;20060;-79
2022/09/01 06:04:24;;;;;;;9.60;2.55;;;;;;;13.85;66.47;99420.88;5061290;28;20529;-79
2022/09/01 06:06:52;;;;;;;15.48;2.90;;;;;;;12.97;69.38;99418.59;5070381;28;20032;-79
2022/09/01 06:09:18;;;;;;;9.40;2.40;;;;;;;12.72;69.65;99415.59;5071494;28;20094;-78
2022/09/01 06:11:45;;;;;;;5.25;2.65;;;;;;;13.28;68.19;99392.97;5064201;28;20020;-78
2022/09/01 06:14:11;;;;;;;7.35;2.35;;;;;;;13.37;68.11;99413.72;5070566;28;20085;-78
2022/09/01 06:16:37;;;;;;;6.30;2.50;;;;;;;13.02;69.69;99399.09;5064281;28;20036;-78
2022/09/01 06:19:03;;;;;;;2.28;1.70;;;;;;;13.13;69.33;99417.72;5072764;28;20031;-78
2022/09/01 06:21:30;;;;;;;4.32;1.95;;;;;;;12.97;70.19;99402.53;5069990;28;20078;-78
2022/09/01 06:23:57;;;;;;;3.00;2.00;;;;;;;12.96;70.21;99422.31;5062286;28;20181;-78
2022/09/01 06:26:31;;;;;;;6.00;2.63;;;;;;;12.27;72.78;99423.81;5061733;28;20032;-79
2022/09/01 06:29:00;;;;;;;7.40;2.63;;;;;;;12.32;72.81;99415.03;5061074;28;20042;-78
2022/09/01 06:31:32;;;;;;;7.60;2.95;;;;;;;12.20;73.37;99417.81;5060774;28;20024;-78
2022/09/01 06:34:00;;;;;;;6.55;2.30;;;;;;;12.15;73.81;99408.88;5066743;28;20058;-78
2022/09/01 06:36:27;;;;;;;6.00;2.08;;;;;;;13.33;69.33;99422.50;5067541;28;20094;-78
2022/09/01 06:38:54;;;;;;;17.05;2.58;;;;;;;13.64;68.54;99412.91;5063118;28;20436;-79
2022/09/01 06:41:22;;;;;;;15.50;3.38;;;;;;;14.10;67.49;99421.09;5064892;28;20029;-79
2022/09/01 06:43:49;;;;;;;21.42;3.60;;;;;;;13.42;70.67;99421.81;5067390;28;20388;-79
2022/09/01 06:46:16;;;;;;;2.95;2.38;;;;;;;12.70;72.60;99417.69;5050374;28;20119;-78
2022/09/01 06:48:45;;;;;;;3.70;2.20;;;;;;;12.71;73.66;99414.75;5061592;28;20094;-78
2022/09/01 06:51:13;;;;;;;3.75;1.90;;;;;;;13.98;67.95;99438.41;5036645;28;20039;-79
2022/09/01 06:53:40;;;;;;;5.53;2.20;;;;;;;13.20;71.94;99434.44;5068719;28;20073;-78
2022/09/01 06:56:08;;;;;;;4.22;2.75;;;;;;;13.25;72.28;99431.81;5056122;28;20029;-78
2022/09/01 06:58:34;;;;;;;3.58;2.70;;;;;;;13.64;70.86;99435.16;5052455;28;20032;-78
2022/09/01 07:01:06;;;;;;;3.70;2.00;;;;;;;13.11;71.86;99421.72;5063170;28;20446;-78
2022/09/01 07:03:32;;;;;;;4.30;2.00;;;;;;;13.53;70.48;99433.44;5086686;28;20502;-78
2022/09/01 07:05:58;;;;;;;2.60;2.08;;;;;;;13.58;71.09;99436.19;5060678;28;20068;-78
2022/09/01 07:08:23;;;;;;;6.70;2.63;;;;;;;13.48;71.63;99434.22;5065482;28;20435;-78
2022/09/01 07:10:50;;;;;;;3.03;2.08;;;;;;;13.62;70.59;99426.56;5069788;28;20082;-78
2022/09/01 07:13:24;;;;;;;4.28;1.90;;;;;;;13.58;72.42;99438.06;5069850;28;20024;-78
2022/09/01 07:15:53;;;;;;;11.02;3.00;;;;;;;13.58;72.15;99430.00;5069476;28;20078;-78
2022/09/01 07:18:21;;;;;;;9.75;2.55;;;;;;;13.58;72.33;99436.19;5064033;28;20020;-78
2022/09/01 07:20:47;;;;;;;4.05;1.98;;;;;;;14.07;70.13;99428.81;5049644;28;20032;-78
2022/09/01 07:23:15;;;;;;;4.20;1.95;;;;;;;14.86;67.75;99433.13;5050249;28;20498;-78
2022/09/01 07:25:44;;;;;;;9.07;2.88;;;;;;;13.99;71.05;99443.53;5066213;28;20036;-78
2022/09/01 07:28:12;;;;;;;8.60;2.00;;;;;;;14.07;71.19;99445.75;5049422;28;20143;-78
2022/09/01 07:30:49;;;;;;;8.15;2.00;;;;;;;13.74;70.64;99413.78;5050942;28;20025;-78
2022/09/01 07:33:19;;;;;;;10.43;2.10;;;;;;;13.91;71.46;99441.31;5066205;28;20032;-78
2022/09/01 07:35:46;;;;;;;4.93;2.55;;;;;;;14.48;68.91;99444.19;5036766;28;20171;-78
2022/09/01 07:38:12;;;;;;;2.00;1.40;;;;;;;15.91;64.01;99434.53;5069495;28;20091;-78
2022/09/01 07:40:40;;;;;;;8.57;2.45;;;;;;;14.67;68.51;99426.59;5039970;28;20035;-79
2022/09/01 07:43:13;;;;;;;1.85;1.38;;;;;;;15.75;64.01;99436.38;5054967;28;20037;-79
2022/09/01 07:45:45;;;;;;;9.90;1.92;;;;;;;15.95;64.48;99438.28;5056797;28;22258;-79
2022/09/01 07:48:11;;;;;;;12.63;2.38;;;;;;;15.63;65.49;99421.56;5058189;28;20062;-79
2022/09/01 07:50:46;;;;;;;4.88;2.40;;;;;;;15.67;65.83;99433.41;5056860;28;20028;-79
2022/09/01 07:53:22;;;;;;;3.92;2.40;;;;;;;14.89;67.59;99432.63;5057293;28;20420;-79
2022/09/01 07:55:51;;;;;;;7.45;2.45;;;;;;;14.90;68.28;99444.97;5043335;28;20060;-79
2022/09/01 07:58:19;;;;;;;5.43;2.50;;;;;;;14.89;68.50;99443.38;5057912;28;20400;-78
2022/09/01 08:00:48;;;;;;;4.75;2.33;;;;;;;14.66;68.10;99445.66;5057748;28;20028;-78
2022/09/01 08:03:16;;;;;;;10.38;2.72;;;;;;;14.55;68.54;99430.53;5059368;28;20064;-79
2022/09/01 08:05:42;;;;;;;7.90;2.60;;;;;;;14.85;68.55;99450.31;5057548;28;20043;-78
2022/09/01 08:08:08;;;;;;;7.57;2.55;;;;;;;14.77;68.53;99450.00;5077360;28;20482;-78
2022/09/01 08:10:37;;;;;;;8.15;2.70;;;;;;;15.01;67.77;99451.22;5052945;28;20389;-78
2022/09/01 08:13:02;;;;;;;4.35;2.75;;;;;;;15.04;67.74;99450.69;5055820;28;20032;-78
2022/09/01 08:15:28;;;;;;;2.55;2.20;;;;;;;15.00;68.48;99436.94;5057001;28;20801;-78
2022/09/01 08:17:53;;;;;;;3.20;2.40;;;;;;;15.52;66.79;99446.84;5058955;28;20036;-78
2022/09/01 08:20:21;;;;;;;12.43;2.92;;;;;;;15.35;67.94;99441.66;5055542;28;20028;-78
2022/09/01 08:22:47;;;;;;;3.05;1.33;;;;;;;16.09;65.24;99439.38;5053358;28;20033;-79
2022/09/01 08:25:12;;;;;;;4.72;2.72;;;;;;;15.68;66.26;99427.75;5054631;28;20065;-78
2022/09/01 08:27:38;;;;;;;8.23;3.00;;;;;;;15.74;66.45;99442.06;5056307;28;20028;-78
2022/09/01 08:30:06;;;;;;;6.60;3.55;;;;;;;16.13;65.09;99436.94;5057846;28;20491;-78
2022/09/01 08:32:32;;;;;;;2.95;2.42;;;;;;;16.41;65.57;99436.38;5055100;28;20593;-78
2022/09/01 08:34:58;;;;;;;2.38;2.03;;;;;;;16.23;65.56;99426.97;5056936;28;20024;-78
2022/09/01 08:37:24;;;;;;;6.65;3.08;;;;;;;16.05;65.43;99434.81;5056794;28;20074;-78
2022/09/01 08:39:51;;;;;;;3.72;2.53;;;;;;;15.70;65.55;99428.31;5034629;28;20024;-78
2022/09/01 08:42:19;;;;;;;2.65;2.10;;;;;;;16.00;65.71;99438.31;5058152;28;20131;-78
2022/09/01 08:44:47;;;;;;;2.08;1.58;;;;;;;16.29;65.84;99444.75;5054558;28;20025;-78
2022/09/01 08:47:16;;;;;;;4.40;1.75;;;;;;;16.54;64.78;99443.13;5053457;28;20573;-78
2022/09/01 08:49:46;;;;;;;6.53;2.38;;;;;;;16.58;64.57;99436.13;5054388;28;20100;-78
2022/09/01 08:52:31;;;;;;;6.78;2.58;;;;;;;16.43;64.03;99420.75;5055390;28;20029;-78
2022/09/01 08:55:20;;;;;;;3.38;2.25;;;;;;;16.30;65.19;99442.84;5056937;28;20035;-78
2022/09/01 08:57:50;;;;;;;5.43;2.28;;;;;;;16.67;64.60;99448.75;5055405;28;20062;-78
2022/09/01 09:00:22;;;;;;;5.10;2.28;;;;;;;16.77;64.30;99435.28;5054134;28;20052;-78
2022/09/01 09:02:57;;;;;;;2.45;1.80;;;;;;;16.71;64.28;99439.03;5054528;28;20097;-79
2022/09/01 09:05:37;;;;;;;3.67;2.92;;;;;;;16.85;64.63;99441.97;5057067;28;20033;-78
2022/09/01 09:08:29;;;;;;;7.40;2.75;;;;;;;16.73;63.95;99446.88;5060585;28;20365;-78
2022/09/01 09:11:00;;;;;;;7.80;2.70;;;;;;;16.95;62.87;99445.44;5055368;28;20029;-78
2022/09/01 09:13:31;;;;;;;3.00;2.55;;;;;;;16.78;62.88;99447.66;5062109;28;20451;-78
2022/09/01 09:16:10;;;;;;;3.78;2.17;;;;;;;17.18;63.27;99417.84;5070830;28;20105;-78
2022/09/01 09:18:54;;;;;;;9.70;2.33;;;;;;;17.33;62.41;99437.72;5057476;28;20021;-78
2022/09/01 09:21:27;;;;;;;2.85;1.73;;;;;;;17.29;62.85;99423.19;5057250;28;20020;-78
2022/09/01 09:23:59;;;;;;;6.20;2.03;;;;;;;17.37;62.08;99431.50;5055987;28;20094;-78
2022/09/01 09:26:25;;;;;;;5.13;1.98;;;;;;;17.22;61.51;99434.28;5056464;28;20044;-78
2022/09/01 09:28:53;;;;;;;4.78;1.95;;;;;;;17.18;61.32;99415.16;5037860;28;20028;-78
2022/09/01 09:31:42;;;;;;;3.35;1.90;;;;;;;17.60;60.65;99430.06;5053961;28;20048;-78
2022/09/01 09:34:38;;;;;;;1.98;1.23;;;;;;;18.01;59.00;99431.38;5054813;28;20450;-78
2022/09/01 09:37:19;;;;;;;5.73;2.00;;;;;;;18.02;58.11;99427.56;5049238;28;20044;-78
2022/09/01 09:40:13;;;;;;;4.22;1.90;;;;;;;18.02;57.87;99416.00;5057033;28;20032;-78
2022/09/01 09:42:52;;;;;;;4.30;1.50;;;;;;;18.50;56.56;99423.94;5054579;28;21823;-78
2022/09/01 09:45:23;;;;;;;2.67;1.70;;;;;;;18.45;57.22;99418.59;5055758;28;20547;-78
2022/09/01 09:47:49;;;;;;;4.63;2.25;;;;;;;18.41;57.04;99398.56;5053183;28;20029;-78
2022/09/01 09:50:28;;;;;;;1.80;1.45;;;;;;;18.49;56.87;99411.53;5054978;28;20030;-77
2022/09/01 09:53:26;;;;;;;2.70;1.42;;;;;;;18.60;56.31;99404.09;5040846;28;20166;-78
2022/09/01 09:55:57;;;;;;;3.03;1.40;;;;;;;19.02;55.30;99397.94;5050999;28;20059;-78
2022/09/01 09:58:27;;;;;;;2.53;1.50;;;;;;;19.31;55.34;99401.31;5066624;28;20032;-78
2022/09/01 10:01:03;;;;;;;4.65;1.58;;;;;;;19.08;53.81;99403.00;5050933;28;21595;-77
2022/09/01 10:03:59;;;;;;;4.60;1.52;;;;;;;19.32;52.96;99411.88;5054891;28;20036;-77
2022/09/01 10:06:34;;;;;;;2.05;1.40;;;;;;;19.51;54.81;99405.69;5037313;28;20036;-78
2022/09/01 10:09:06;;;;;;;6.70;2.28;;;;;;;19.16;53.74;99377.97;5054148;28;20112;-78
2022/09/01 10:11:42;;;;;;;4.82;1.17;;;;;;;19.51;53.24;99373.19;5058160;28;20032;-78
2022/09/01 10:14:16;;;;;;;1.80;1.50;;;;;;;19.65;52.26;99390.31;5056580;28;20033;-77
2022/09/01 10:16:43;;;;;;;2.13;1.40;;;;;;;19.90;52.73;99384.47;5051622;28;20578;-77
2022/09/01 10:19:14;;;;;;;3.22;1.83;;;;;;;20.01;52.08;99386.72;5053148;28;20036;-77
2022/09/01 10:21:43;;;;;;;6.57;1.88;;;;;;;20.10;52.37;99395.00;5049651;28;20177;-78
2022/09/01 10:24:29;;;;;;;4.35;2.00;;;;;;;20.11;51.31;99359.47;5050550;28;20119;-77
2022/09/01 10:26:59;;;;;;;4.20;1.95;;;;;;;20.18;51.05;99378.84;5052897;28;20448;-77
2022/09/01 10:29:31;;;;;;;5.07;1.70;;;;;;;20.68;51.87;99382.56;5052590;28;20028;-77
2022/09/01 10:31:59;;;;;;;6.45;2.20;;;;;;;20.52;50.44;99375.81;5056652;28;20032;-77
2022/09/01 10:34:31;;;;;;;2.53;1.35;;;;;;;20.56;50.88;99384.16;5055135;28;20029;-77
2022/09/01 10:36:57;;;;;;;2.78;1.83;;;;;;;20.53;50.37;99385.56;5053373;28;20033;-77
2022/09/01 10:39:22;;;;;;;5.53;1.67;;;;;;;20.24;50.44;99382.31;5067856;28;20532;-77
2022/09/01 10:41:56;;;;;;;2.83;1.80;;;;;;;20.61;50.07;99375.94;5055204;28;20035;-77
2022/09/01 10:44:35;;;;;;;3.47;1.67;;;;;;;20.36;50.77;99385.34;5037544;28;20051;-77
2022/09/01 10:47:05;;;;;;;3.60;1.63;;;;;;;19.97;51.50;99380.31;5034074;28;20052;-79
2022/09/01 10:49:30;;;;;;;3.45;1.98;;;;;;;19.81;51.68;99375.44;5064770;28;20028;-77
2022/09/01 10:51:57;;;;;;;3.42;1.90;;;;;;;19.94;49.90;99361.13;5048959;28;20070;-78
2022/09/01 10:54:37;;;;;;;3.58;1.50;;;;;;;19.92;50.20;99369.53;5018067;28;20039;-77
2022/09/01 10:57:25;;;;;;;3.88;2.05;;;;;;;19.72;50.68;99350.13;5063653;28;20052;-78
2022/09/01 10:59:52;;;;;;;2.35;1.65;;;;;;;19.91;51.30;99354.41;5033750;28;20085;-77
2022/09/01 11:02:20;;;;;;;1.60;1.40;;;;;;;20.35;49.27;99364.75;5048985;28;20032;-77
2022/09/01 11:04:45;;;;;;;2.97;1.30;;;;;;;20.18;48.83;99364.50;5048292;28;21563;-77
2022/09/01 11:07:20;;;;;;;2.58;1.45;;;;;;;20.29;48.18;99365.16;5047652;28;20063;-77
2022/09/01 11:10:12;;;;;;;2.67;1.93;;;;;;;20.93;49.57;99357.63;5049081;28;20039;-77
2022/09/01 11:13:23;;;;;;;1.95;1.70;;;;;;;21.42;47.10;99353.34;5052227;28;20086;-77
2022/09/01 11:15:49;;;;;;;1.75;1.42;;;;;;;21.28;46.68;99319.97;5057125;28;20066;-77
2022/09/01 11:18:28;;;;;;;4.72;1.40;;;;;;;21.60;48.49;99342.28;5070902;28;20028;-78
2022/09/01 11:20:54;;;;;;;1.80;1.50;;;;;;;21.69;46.25;99345.06;5056291;28;20032;-77
2022/09/01 11:23:29;;;;;;;1.88;1.33;;;;;;;21.40;44.81;99352.84;5041085;28;20072;-77
2022/09/01 11:25:54;;;;;;;1.40;1.30;;;;;;;21.46;45.67;99359.75;5055792;28;20110;-77
2022/09/01 11:28:22;;;;;;;2.30;1.90;;;;;;;21.53;43.18;99351.97;5053595;28;20420;-77
2022/09/01 11:31:07;;;;;;;1.60;1.50;;;;;;;21.59;41.98;99348.03;5057031;28;20029;-78
2022/09/01 11:34:03;;;;;;;1.42;1.33;;;;;;;21.56;44.95;99354.06;5071353;28;20032;-78
2022/09/01 11:36:46;;;;;;;5.38;1.73;;;;;;;21.47;44.05;99345.84;5053930;28;20028;-78
2022/09/01 11:39:35;;;;;;;2.22;1.27;;;;;;;22.17;43.81;99348.75;5058063;28;20033;-78
2022/09/01 11:42:17;;;;;;;4.85;1.98;;;;;;;22.44;43.00;99327.91;5050693;28;20758;-78
2022/09/01 11:44:56;;;;;;;2.60;1.55;;;;;;;22.44;44.54;99349.69;5056399;28;20063;-80
2022/09/01 11:47:27;;;;;;;5.57;1.42;;;;;;;22.21;43.34;99347.00;5056582;28;20047;-83
2022/09/01 11:49:57;;;;;;;3.40;1.30;;;;;;;21.87;43.44;99348.72;5053685;28;21760;-79
2022/09/01 11:52:29;;;;;;;5.43;1.58;;;;;;;21.93;45.21;99339.34;5054419;28;20659;-80